仁川国際空港の過去48時間の天気

仁川国際空港 (Incheon International Airport)

現在時刻: 10/18 18:29 KST (10/18 09:29 UTC) 以下の時間は現地時間です。

過去48時間のMETAR気象情報
時間 風向 風速(m/s) 視程 気温(℃) 湿度(%) 気圧(hPa) 天気現象
18 18:00 南東 3 10km以上 20 56 1019
18 17:30 南東 4 10km以上 21 49 1019
18 17:00 南東 5 10km以上 21 53 1019
18 16:30 南東 4 10km以上 21 53 1019
18 16:00 南東 4 10km以上 22 46 1019
18 15:30 南東 5 10km以上 22 46 1019
18 15:00 南東 5 10km以上 22 50 1020
18 14:30 南東 5 10km以上 22 46 1020
18 14:00 東南東 4 10km以上 23 44 1020
18 13:30 東南東 4 10km以上 22 43 1021
18 13:00 北東 4 10km以上 21 49 1021
18 12:30 北東 5 10km以上 20 49 1021
18 12:00 北東 5 10km以上 20 49 1022
18 11:30 北東 5 10km以上 19 56 1022
18 11:00 北東 5 10km以上 18 56 1023
18 10:30 北東 6 10km以上 17 59 1023
18 10:00 北東 4 10km以上 17 59 1024
18 09:30 北東 5 10km以上 17 55 1024
18 09:00 北東 5 10km以上 16 59 1024
18 08:30 東北東 4 10km以上 15 63 1024
18 08:00 東北東 4 10km以上 14 72 1024
18 07:30 東北東 4 10km以上 14 72 1023
18 07:00 北東 3 10km以上 13 77 1024
18 06:30 北東 3 10km以上 14 72 1024
18 06:00 東北東 3 10km以上 14 72 1024
18 05:30 北東 2 10km以上 15 63 1024
18 05:00 2 10km以上 14 72 1024
18 04:30 東北東 3 10km以上 13 77 1023
18 04:00 東北東 3 10km以上 13 72 1023
18 03:30 北東 3 10km以上 12 77 1024
18 03:00 北東 3 10km以上 13 72 1024
18 02:30 北東 2 10km以上 15 63 1024
18 02:00 北東 3 10km以上 14 67 1024
18 01:30 北東 3 10km以上 15 63 1024
18 01:00 北東 2 10km以上 15 63 1024
18 00:30 東北東 2 10km以上 15 63 1024
17 22:30 東南東 2 10km以上 15 63 1024
17 22:00 南東 1 10km以上 15 63 1024
17 21:30 2 10km以上 14 67 1024
17 21:00 北東 1 10km以上 15 63 1024
17 20:30 北東 2 10km以上 16 63 1023
17 20:00 北北東 1 10km以上 15 67 1024
17 19:30 南南西 1 10km以上 16 59 1023
17 19:00 1 10km以上 15 63 1023
17 18:30 北西 2 10km以上 17 55 1023
17 18:00 西北西 2 10km以上 17 55 1023
17 17:30 北西 3 10km以上 17 52 1022
17 17:00 西北西 3 10km以上 18 49 1023
17 16:30 北西 3 10km以上 18 52 1023
17 16:00 西北西 4 10km以上 20 46 1023
17 15:30 西南西 3 10km以上 20 46 1023
17 15:00 東北東 2 10km以上 20 43 1023
17 14:30 東北東 2 10km以上 20 43 1023
17 14:00 北北東 3 10km以上 20 43 1023
17 13:30 3 10km以上 20 43 1023
17 13:00 北東 2 10km以上 19 46 1024
17 12:30 1 10km以上 19 43 1024
17 12:00 北北東 3 10km以上 18 52 1024
17 11:30 北東 3 10km以上 17 55 1025
17 11:00 北東 3 10km以上 17 55 1025
17 10:30 北東 4 10km以上 16 59 1025
17 10:00 北東 4 10km以上 16 59 1025
17 09:30 北東 5 10km以上 15 63 1024
17 09:00 北東 4 10km以上 15 63 1024
17 08:30 東北東 4 10km以上 14 67 1025
17 08:00 北東 3 10km以上 13 77 1024
17 07:30 北東 4 10km以上 13 77 1024
17 07:00 北東 4 10km以上 12 77 1024
17 06:30 東北東 3 10km以上 13 67 1024
17 06:00 2 10km以上 13 72 1024
17 05:30 東北東 1 10km以上 12 77 1024
17 05:00 1 10km以上 13 72 1024
17 04:30 1 10km以上 13 72 1024
17 04:00 1 10km以上 12 77 1024
17 03:30 東北東 2 10km以上 13 67 1024
17 03:00 北北東 3 10km以上 13 67 1025
17 02:30 北北東 2 10km以上 13 67 1025
17 02:00 北東 3 10km以上 14 63 1025
17 01:30 北東 2 10km以上 14 72 1025
17 01:00 北東 2 10km以上 14 77 1025
17 00:30 北北東 2 10km以上 14 77 1025
17 00:00 北東 2 10km以上 15 72 1025
16 23:30 2 10km以上 15 72 1025
16 23:00 北西 2 10km以上 16 63 1025
16 22:30 西北西 3 10km以上 16 63 1025
16 22:00 北西 2 10km以上 16 63 1025
16 21:30 北北西 3 10km以上 15 63 1025
16 21:00 西北西 3 10km以上 16 63 1025
16 20:30 北西 3 10km以上 16 59 1025
16 20:00 西北西 3 10km以上 16 59 1025
16 19:30 北西 3 10km以上 16 59 1025
16 19:00 北西 3 10km以上 16 55 1025
16 18:30 西北西 3 10km以上 16 55 1025
RKSI 180900Z 13005KT 9999 FEW045 SCT120 20/11 Q1019 NOSIG
RKSI 180830Z 13008KT 9999 FEW045 SCT120 21/10 Q1019 NOSIG
RKSI 180800Z 14009KT 9999 FEW045 BKN180 21/11 Q1019 NOSIG
RKSI 180730Z 14008KT 9999 SCT045 BKN180 21/11 Q1019 NOSIG
RKSI 180700Z 14008KT 090V160 9999 SCT045 BKN120 22/10 Q1019 NOSIG
RKSI 180630Z 13010KT 080V150 9999 FEW045 SCT120 22/10 Q1019 NOSIG
RKSI 180600Z 13009KT 090V180 9999 FEW045 SCT120 22/11 Q1020 NOSIG
RKSI 180530Z 13010KT 090V160 9999 FEW045 SCT120 22/10 Q1020 NOSIG
RKSI 180500Z 12008KT 080V140 9999 FEW045 SCT120 23/10 Q1020 NOSIG
RKSI 180430Z 11008KT 050V150 9999 FEW010 SCT120 22/09 Q1021 NOSIG
RKSI 180400Z 05007KT 020V120 CAVOK 21/10 Q1021 NOSIG
RKSI 180330Z 04009KT CAVOK 20/09 Q1021 NOSIG
RKSI 180300Z 04009KT 010V070 CAVOK 20/09 Q1022 NOSIG
RKSI 180230Z 04010KT CAVOK 19/10 Q1022 NOSIG
RKSI 180200Z 04009KT CAVOK 18/09 Q1023 NOSIG
RKSI 180130Z 04011KT CAVOK 17/09 Q1023 NOSIG
RKSI 180100Z 04007KT CAVOK 17/09 Q1024 NOSIG
RKSI 180030Z 04009KT CAVOK 17/08 Q1024 NOSIG
RKSI 180000Z 05009KT CAVOK 16/08 Q1024 NOSIG
RKSI 172330Z 07007KT CAVOK 15/08 Q1024 NOSIG
RKSI 172300Z 06008KT CAVOK 14/09 Q1024 NOSIG
RKSI 172230Z 06007KT CAVOK 14/09 Q1023 NOSIG
RKSI 172200Z 05006KT CAVOK 13/09 Q1024 NOSIG
RKSI 172130Z 05005KT CAVOK 14/09 Q1024 NOSIG
RKSI 172100Z 06005KT CAVOK 14/09 Q1024 NOSIG
RKSI 172030Z 05004KT CAVOK 15/08 Q1024 NOSIG
RKSI 172000Z 08003KT 050V110 CAVOK 14/09 Q1024 NOSIG
RKSI 171930Z 06006KT CAVOK 13/09 Q1023 NOSIG
RKSI 171900Z 06006KT CAVOK 13/08 Q1023 NOSIG
RKSI 171830Z 05006KT CAVOK 12/08 Q1024 NOSIG
RKSI 171800Z 05005KT CAVOK 13/08 Q1024 NOSIG
RKSI 171730Z 05004KT CAVOK 15/08 Q1024 NOSIG
RKSI 171700Z 05006KT CAVOK 14/08 Q1024 NOSIG
RKSI 171630Z 05005KT CAVOK 15/08 Q1024 NOSIG
RKSI 171600Z 05004KT CAVOK 15/08 Q1024 NOSIG
RKSI 171530Z 07003KT 050V120 CAVOK 15/08 Q1024 NOSIG
RKSI 171330Z 11003KT 090V150 CAVOK 15/08 Q1024 NOSIG
RKSI 171300Z 13001KT CAVOK 15/08 Q1024 NOSIG
RKSI 171230Z 08003KT CAVOK 14/08 Q1024 NOSIG
RKSI 171200Z 04002KT CAVOK 15/08 Q1024 NOSIG
RKSI 171130Z 04003KT CAVOK 16/09 Q1023 NOSIG
RKSI 171100Z 03001KT CAVOK 15/09 Q1024 NOSIG
RKSI 171030Z 20002KT CAVOK 16/08 Q1023 NOSIG
RKSI 171000Z 01002KT CAVOK 15/08 Q1023 NOSIG
RKSI 170930Z 32003KT CAVOK 17/08 Q1023 NOSIG
RKSI 170900Z 30004KT CAVOK 17/08 Q1023 NOSIG
RKSI 170830Z 32005KT CAVOK 17/07 Q1022 NOSIG
RKSI 170800Z 30005KT CAVOK 18/07 Q1023 NOSIG
RKSI 170730Z 31005KT CAVOK 18/08 Q1023 NOSIG
RKSI 170700Z 29007KT 240V320 CAVOK 20/08 Q1023 NOSIG
RKSI 170630Z 25005KT 210V300 9999 FEW040 SCT200 20/08 Q1023 NOSIG
RKSI 170600Z 06004KT 360V100 9999 FEW040 SCT200 20/07 Q1023 NOSIG
RKSI 170530Z 06003KT 9999 FEW040 SCT200 20/07 Q1023 NOSIG
RKSI 170500Z 03005KT 320V090 9999 FEW040 SCT200 20/07 Q1023 NOSIG
RKSI 170430Z 08005KT 9999 FEW040 SCT140 BKN180 20/07 Q1023 NOSIG
RKSI 170400Z 05004KT 340V130 CAVOK 19/07 Q1024 NOSIG
RKSI 170330Z 01002KT CAVOK 19/06 Q1024 NOSIG
RKSI 170300Z 03005KT 360V070 CAVOK 18/08 Q1024 NOSIG
RKSI 170230Z 04005KT CAVOK 17/08 Q1025 NOSIG
RKSI 170200Z 05005KT CAVOK 17/08 Q1025 NOSIG
RKSI 170130Z 04007KT CAVOK 16/08 Q1025 NOSIG
RKSI 170100Z 05008KT 020V080 CAVOK 16/08 Q1025 NOSIG
RKSI 170030Z 05009KT CAVOK 15/08 Q1024 NOSIG
RKSI 170000Z 05008KT CAVOK 15/08 Q1024 NOSIG
RKSI 162330Z 07007KT CAVOK 14/08 Q1025 NOSIG
RKSI 162300Z 05006KT CAVOK 13/09 Q1024 NOSIG
RKSI 162230Z 05007KT CAVOK 13/09 Q1024 NOSIG
RKSI 162200Z 05007KT CAVOK 12/08 Q1024 NOSIG
RKSI 162130Z 06005KT CAVOK 13/07 Q1024 NOSIG
RKSI 162100Z 08004KT CAVOK 13/08 Q1024 NOSIG
RKSI 162030Z 07002KT CAVOK 12/08 Q1024 NOSIG
RKSI 162000Z 08002KT CAVOK 13/08 Q1024 NOSIG
RKSI 161930Z 08002KT CAVOK 13/08 Q1024 NOSIG
RKSI 161900Z 10002KT CAVOK 12/08 Q1024 NOSIG
RKSI 161830Z 06003KT CAVOK 13/07 Q1024 NOSIG
RKSI 161800Z 02005KT CAVOK 13/07 Q1025 NOSIG
RKSI 161730Z 03004KT 340V060 CAVOK 13/07 Q1025 NOSIG
RKSI 161700Z 04005KT CAVOK 14/07 Q1025 NOSIG
RKSI 161630Z 05004KT CAVOK 14/09 Q1025 NOSIG
RKSI 161600Z 04004KT CAVOK 14/10 Q1025 NOSIG
RKSI 161530Z 03003KT CAVOK 14/10 Q1025 NOSIG
RKSI 161500Z 04004KT CAVOK 15/10 Q1025 NOSIG
RKSI 161430Z 36003KT CAVOK 15/10 Q1025 NOSIG
RKSI 161400Z 32003KT 300V360 CAVOK 16/09 Q1025 NOSIG
RKSI 161330Z 30005KT 280V340 CAVOK 16/09 Q1025 NOSIG
RKSI 161300Z 31004KT CAVOK 16/09 Q1025 NOSIG
RKSI 161230Z 34005KT 300V360 CAVOK 15/08 Q1025 NOSIG
RKSI 161200Z 30005KT CAVOK 16/09 Q1025 NOSIG
RKSI 161130Z 32005KT CAVOK 16/08 Q1025 NOSIG
RKSI 161100Z 30005KT CAVOK 16/08 Q1025 NOSIG
RKSI 161030Z 32006KT CAVOK 16/08 Q1025 NOSIG
RKSI 161000Z 32005KT CAVOK 16/07 Q1025 NOSIG
RKSI 160930Z 30005KT CAVOK 16/07 Q1025 NOSIG